createdAt,value
2022-09-24T00:02:18.168Z,10.90
2022-09-24T00:04:46.200Z,10.80
2022-09-24T00:07:15.558Z,10.80
2022-09-24T00:09:43.690Z,10.70
2022-09-24T00:12:13.241Z,10.70
2022-09-24T00:14:41.488Z,10.60
2022-09-24T00:17:09.544Z,10.70
2022-09-24T00:19:37.543Z,10.70
2022-09-24T00:22:05.537Z,10.70
2022-09-24T00:25:01.010Z,10.60
2022-09-24T00:27:29.214Z,10.60
2022-09-24T00:29:57.196Z,10.50
2022-09-24T00:32:25.219Z,10.60
2022-09-24T00:34:54.061Z,10.50
2022-09-24T00:37:22.272Z,10.50
2022-09-24T00:39:51.639Z,10.50
2022-09-24T00:42:20.734Z,10.40
2022-09-24T00:44:54.353Z,10.40
2022-09-24T00:47:37.030Z,10.40
2022-09-24T00:50:20.887Z,10.30
2022-09-24T00:52:56.505Z,10.30
2022-09-24T00:55:28.348Z,10.30
2022-09-24T00:58:01.416Z,10.30
2022-09-24T01:00:29.463Z,10.50
2022-09-24T01:03:03.443Z,10.50
2022-09-24T01:05:32.438Z,10.50
2022-09-24T01:08:00.760Z,10.50
2022-09-24T01:10:51.264Z,10.60
2022-09-24T01:14:04.725Z,10.60
2022-09-24T01:16:46.134Z,10.50
2022-09-24T01:19:49.253Z,10.50
2022-09-24T01:22:38.242Z,10.60
2022-09-24T01:25:17.304Z,10.60
2022-09-24T01:28:08.481Z,10.60
2022-09-24T01:30:42.365Z,10.70
2022-09-24T01:33:21.151Z,10.60
2022-09-24T01:35:54.890Z,10.60
2022-09-24T01:38:28.637Z,10.60
2022-09-24T01:41:02.709Z,10.70
2022-09-24T01:43:32.424Z,10.80
2022-09-24T01:46:06.924Z,10.80
2022-09-24T01:48:38.318Z,10.80
2022-09-24T01:51:15.096Z,10.80
2022-09-24T01:53:48.441Z,10.80
2022-09-24T01:56:26.697Z,10.80
2022-09-24T01:59:03.866Z,10.80
2022-09-24T02:01:41.438Z,10.80
2022-09-24T02:04:16.638Z,10.80
2022-09-24T02:06:52.210Z,10.70
2022-09-24T02:09:35.427Z,10.70
2022-09-24T02:12:10.795Z,10.60
2022-09-24T02:14:46.061Z,10.60
2022-09-24T02:17:16.357Z,10.60
2022-09-24T02:19:47.378Z,10.60
2022-09-24T02:22:16.005Z,10.60
2022-09-24T02:24:50.255Z,10.60
2022-09-24T02:27:19.719Z,10.60
2022-09-24T02:29:47.771Z,10.60
2022-09-24T02:32:21.995Z,10.70
2022-09-24T02:34:53.877Z,10.50
2022-09-24T02:37:25.519Z,10.60
2022-09-24T02:39:53.504Z,10.60
2022-09-24T02:42:23.056Z,10.60
2022-09-24T02:44:52.303Z,10.60
2022-09-24T02:47:21.660Z,10.50
2022-09-24T02:49:49.660Z,10.50
2022-09-24T02:52:18.736Z,10.50
2022-09-24T02:54:46.729Z,10.50
2022-09-24T02:57:14.991Z,10.40
2022-09-24T02:59:43.050Z,10.40
2022-09-24T03:02:11.185Z,10.40
2022-09-24T03:04:40.721Z,10.40
2022-09-24T03:07:09.313Z,10.40
2022-09-24T03:09:37.355Z,10.40
2022-09-24T03:12:05.485Z,10.40
2022-09-24T03:14:33.521Z,10.40
2022-09-24T03:17:01.502Z,10.60
2022-09-24T03:19:29.596Z,10.60
2022-09-24T03:21:58.942Z,10.60
2022-09-24T03:24:26.948Z,10.60
2022-09-24T03:26:55.052Z,10.60
2022-09-24T03:29:43.049Z,10.60
2022-09-24T03:32:10.070Z,10.60
2022-09-24T03:34:38.072Z,10.60
2022-09-24T03:37:07.420Z,10.60
2022-09-24T03:39:35.388Z,10.60
2022-09-24T03:42:03.353Z,10.60
2022-09-24T03:44:31.480Z,10.60
2022-09-24T03:46:59.467Z,10.60
2022-09-24T03:49:27.435Z,10.60
2022-09-24T03:51:55.465Z,10.50
2022-09-24T03:54:24.816Z,10.50
2022-09-24T03:56:52.784Z,10.40
2022-09-24T03:59:20.777Z,10.40
2022-09-24T04:01:48.773Z,10.40
2022-09-24T04:04:16.998Z,10.40
2022-09-24T04:06:45.077Z,10.40
2022-09-24T04:09:13.091Z,10.40
2022-09-24T04:11:43.427Z,10.40
2022-09-24T04:14:11.509Z,10.30
2022-09-24T04:16:39.934Z,10.30
2022-09-24T04:19:08.695Z,10.20
2022-09-24T04:21:36.700Z,10.20
2022-09-24T04:24:04.870Z,10.30
2022-09-24T04:26:32.855Z,10.20
2022-09-24T04:29:02.216Z,10.20
2022-09-24T04:31:32.595Z,10.10
2022-09-24T04:34:01.968Z,10.10
2022-09-24T04:36:30.096Z,10.10
2022-09-24T04:38:58.142Z,10.00
2022-09-24T04:41:26.149Z,10.00
2022-09-24T04:43:54.165Z,9.90
2022-09-24T04:46:23.562Z,9.90
2022-09-24T04:48:51.580Z,9.90
2022-09-24T04:51:21.243Z,9.90
2022-09-24T04:53:50.517Z,9.90
2022-09-24T04:56:18.916Z,9.90
2022-09-24T04:58:51.665Z,9.90
2022-09-24T05:01:20.339Z,9.90
2022-09-24T05:03:49.705Z,9.90
2022-09-24T05:06:17.742Z,9.80
2022-09-24T05:08:45.700Z,10.00
2022-09-24T05:11:14.047Z,9.70
2022-09-24T05:13:41.994Z,9.70
2022-09-24T05:16:10.200Z,9.70
2022-09-24T05:18:39.273Z,9.60
2022-09-24T05:21:09.127Z,9.60
2022-09-24T05:23:37.080Z,9.60
2022-09-24T05:26:22.780Z,9.60
2022-09-24T05:28:50.758Z,9.60
2022-09-24T05:31:18.777Z,9.60
2022-09-24T05:33:46.856Z,9.60
2022-09-24T05:36:16.292Z,9.60
2022-09-24T05:38:44.214Z,9.70
2022-09-24T05:41:12.217Z,9.70
2022-09-24T05:43:41.124Z,9.70
2022-09-24T05:46:09.210Z,9.70
2022-09-24T05:48:37.324Z,9.70
2022-09-24T05:51:06.942Z,9.70
2022-09-24T05:53:36.408Z,9.60
2022-09-24T05:56:04.470Z,9.80
2022-09-24T05:58:32.661Z,9.90
2022-09-24T06:01:01.684Z,9.90
2022-09-24T06:03:31.640Z,10.00
2022-09-24T06:06:02.046Z,10.00
2022-09-24T06:08:33.019Z,10.10
2022-09-24T06:11:05.209Z,10.20
2022-09-24T06:13:34.962Z,10.30
2022-09-24T06:16:03.700Z,10.50
2022-09-24T06:18:32.430Z,10.60
2022-09-24T06:21:03.602Z,10.70
2022-09-24T06:23:31.904Z,10.80
2022-09-24T06:26:00.210Z,10.90
2022-09-24T06:28:29.987Z,10.90
2022-09-24T06:31:01.311Z,11.10
2022-09-24T06:33:30.454Z,11.10
2022-09-24T06:36:02.315Z,11.20
2022-09-24T06:38:30.843Z,11.30
2022-09-24T06:41:01.700Z,11.40
2022-09-24T06:43:31.851Z,11.50
2022-09-24T06:46:01.609Z,11.50
2022-09-24T06:48:31.081Z,11.50
2022-09-24T06:50:59.613Z,11.60
2022-09-24T06:53:28.067Z,11.70
2022-09-24T06:55:59.765Z,11.80
2022-09-24T06:58:28.063Z,11.90
2022-09-24T07:00:59.755Z,11.90
2022-09-24T07:03:29.474Z,12.00
2022-09-24T07:06:00.677Z,12.10
2022-09-24T07:08:28.994Z,12.20
2022-09-24T07:10:57.077Z,12.20
2022-09-24T07:13:25.128Z,12.30
2022-09-24T07:15:53.881Z,12.20
2022-09-24T07:18:23.394Z,12.20
2022-09-24T07:20:55.353Z,12.10
2022-09-24T07:23:24.090Z,12.10
2022-09-24T07:25:56.730Z,12.10
2022-09-24T07:28:24.810Z,12.10
2022-09-24T07:30:59.306Z,12.20
2022-09-24T07:33:29.366Z,12.30
2022-09-24T07:35:57.331Z,12.40
2022-09-24T07:38:25.611Z,12.50
2022-09-24T07:40:58.080Z,12.50
2022-09-24T07:43:26.813Z,12.60
2022-09-24T07:45:55.743Z,12.70
2022-09-24T07:48:24.295Z,12.90
2022-09-24T07:50:53.670Z,13.10
2022-09-24T07:53:22.365Z,13.20
2022-09-24T07:55:50.368Z,13.30
2022-09-24T07:58:18.462Z,13.50
2022-09-24T08:00:46.533Z,13.60
2022-09-24T08:03:14.986Z,13.70
2022-09-24T08:05:46.480Z,13.90
2022-09-24T08:08:16.494Z,14.00
2022-09-24T08:10:44.982Z,14.00
2022-09-24T08:13:13.042Z,14.20
2022-09-24T08:15:41.736Z,14.40
2022-09-24T08:18:10.232Z,14.50
2022-09-24T08:20:39.821Z,14.60
2022-09-24T08:23:10.866Z,14.70
2022-09-24T08:25:40.208Z,14.80
2022-09-24T08:28:11.261Z,14.80
2022-09-24T08:30:40.791Z,14.80
2022-09-24T08:33:09.197Z,15.00
2022-09-24T08:35:39.957Z,15.00
2022-09-24T08:38:09.402Z,15.10
2022-09-24T08:40:46.622Z,15.10
2022-09-24T08:43:38.208Z,15.20
2022-09-24T08:46:35.790Z,15.10
2022-09-24T08:49:06.179Z,15.20
2022-09-24T08:51:45.086Z,15.30
2022-09-24T08:54:16.289Z,15.40
2022-09-24T08:56:47.927Z,15.30
2022-09-24T08:59:28.628Z,15.50
2022-09-24T09:02:20.411Z,15.70
2022-09-24T09:05:16.655Z,15.90
2022-09-24T09:07:55.933Z,16.10
2022-09-24T09:10:29.158Z,16.10
2022-09-24T09:13:11.555Z,16.30
2022-09-24T09:15:46.097Z,16.20
2022-09-24T09:18:22.488Z,16.20
2022-09-24T09:20:51.436Z,16.20
2022-09-24T09:23:22.739Z,16.40
2022-09-24T09:25:55.682Z,16.50
2022-09-24T09:28:28.568Z,16.70
2022-09-24T09:31:08.349Z,16.50
2022-09-24T09:34:10.088Z,16.50
2022-09-24T09:36:55.058Z,16.60
2022-09-24T09:39:38.668Z,16.60
2022-09-24T09:42:27.210Z,16.60
2022-09-24T09:44:58.113Z,16.50
2022-09-24T09:47:40.756Z,16.60
2022-09-24T09:50:26.348Z,16.60
2022-09-24T09:52:54.651Z,16.70
2022-09-24T09:55:26.695Z,16.70
2022-09-24T09:58:10.857Z,16.90
2022-09-24T10:00:40.228Z,17.00
2022-09-24T10:03:21.818Z,17.00
2022-09-24T10:05:57.071Z,17.00
2022-09-24T10:08:26.561Z,17.00
2022-09-24T10:10:59.043Z,17.10
2022-09-24T10:13:28.326Z,17.10
2022-09-24T10:16:01.367Z,17.10
2022-09-24T10:18:34.785Z,17.20
2022-09-24T10:21:06.864Z,17.30
2022-09-24T10:23:40.455Z,17.30
2022-09-24T10:26:10.743Z,17.40
2022-09-24T10:29:06.768Z,17.40
2022-09-24T10:31:42.050Z,17.60
2022-09-24T10:34:24.154Z,17.60
2022-09-24T10:36:54.903Z,17.70
2022-09-24T10:39:23.406Z,17.70
2022-09-24T10:41:53.490Z,17.70
2022-09-24T10:44:23.084Z,17.80
2022-09-24T10:47:26.437Z,17.80
2022-09-24T10:50:25.390Z,17.90
2022-09-24T10:52:58.455Z,18.00
2022-09-24T10:55:47.381Z,18.00
2022-09-24T10:58:38.340Z,18.20
2022-09-24T11:01:19.244Z,18.40
2022-09-24T11:04:23.585Z,18.60
2022-09-24T11:07:25.241Z,19.00
2022-09-24T11:10:01.487Z,19.30
2022-09-24T11:12:41.487Z,19.50
2022-09-24T11:15:35.116Z,19.70
2022-09-24T11:18:28.046Z,19.90
2022-09-24T11:21:14.358Z,19.90
2022-09-24T11:24:03.858Z,19.80
2022-09-24T11:26:52.404Z,20.00
2022-09-24T11:29:44.487Z,20.10
2022-09-24T11:32:26.085Z,20.00
2022-09-24T11:35:29.803Z,19.90
2022-09-24T11:38:09.775Z,19.70
2022-09-24T11:41:00.500Z,19.90
2022-09-24T11:44:02.297Z,20.40
2022-09-24T11:46:49.212Z,20.80
2022-09-24T11:49:44.259Z,20.90
2022-09-24T11:52:22.020Z,21.10
2022-09-24T11:55:06.979Z,21.10
2022-09-24T11:57:41.487Z,21.10
2022-09-24T12:00:17.689Z,21.00
2022-09-24T12:02:52.572Z,20.90
2022-09-24T12:05:32.324Z,20.70
2022-09-24T12:08:09.392Z,20.60
2022-09-24T12:10:47.613Z,20.40
2022-09-24T12:13:23.442Z,20.40
2022-09-24T12:15:57.537Z,20.30
2022-09-24T12:18:33.484Z,20.20
2022-09-24T12:21:08.529Z,20.00
2022-09-24T12:23:41.775Z,19.80
2022-09-24T12:26:16.271Z,19.70
2022-09-24T12:29:29.031Z,19.60
2022-09-24T12:32:26.901Z,19.60
2022-09-24T12:35:06.092Z,19.40
2022-09-24T12:37:40.824Z,19.40
2022-09-24T12:40:36.398Z,19.40
2022-09-24T12:43:24.395Z,19.60
2022-09-24T12:45:59.340Z,19.70
2022-09-24T12:48:28.841Z,19.90
2022-09-24T12:51:00.747Z,20.00
2022-09-24T12:53:36.480Z,20.00
2022-09-24T12:56:07.013Z,19.90
2022-09-24T12:58:43.573Z,19.80
2022-09-24T13:01:28.523Z,19.70
2022-09-24T13:04:28.641Z,19.70
2022-09-24T13:06:56.772Z,19.90
2022-09-24T13:09:37.528Z,20.20
2022-09-24T13:12:31.367Z,20.30
2022-09-24T13:15:04.900Z,20.70
2022-09-24T13:17:37.334Z,20.80
2022-09-24T13:20:26.478Z,20.90
2022-09-24T13:22:59.590Z,20.60
2022-09-24T13:25:28.512Z,20.60
2022-09-24T13:28:01.440Z,20.50
2022-09-24T13:30:42.894Z,20.60
2022-09-24T13:33:27.936Z,20.70
2022-09-24T13:36:11.578Z,20.70
2022-09-24T13:38:54.669Z,20.80
2022-09-24T13:41:42.053Z,20.80
2022-09-24T13:44:21.713Z,20.80
2022-09-24T13:47:00.261Z,21.00
2022-09-24T13:49:31.965Z,21.00
2022-09-24T13:52:15.220Z,21.00
2022-09-24T13:54:53.295Z,20.80
2022-09-24T13:57:26.162Z,20.70
2022-09-24T14:00:15.479Z,20.70
2022-09-24T14:02:56.770Z,20.80
2022-09-24T14:05:25.791Z,20.90
2022-09-24T14:07:58.792Z,20.70
2022-09-24T14:10:26.875Z,20.70
2022-09-24T14:13:17.472Z,20.60
2022-09-24T14:15:54.141Z,20.70
2022-09-24T14:18:25.394Z,20.70
2022-09-24T14:21:01.218Z,20.70
2022-09-24T14:23:37.428Z,20.80
2022-09-24T14:26:07.083Z,20.70
2022-09-24T14:28:36.059Z,20.60
2022-09-24T14:31:09.463Z,20.60
2022-09-24T14:33:40.959Z,20.40
2022-09-24T14:36:13.175Z,20.10
2022-09-24T14:38:53.941Z,19.90
2022-09-24T14:41:25.981Z,19.80
2022-09-24T14:43:59.163Z,19.60
2022-09-24T14:46:31.828Z,19.50
2022-09-24T14:49:19.759Z,19.40
2022-09-24T14:51:56.638Z,19.30
2022-09-24T14:54:32.984Z,19.10
2022-09-24T14:57:12.507Z,18.90
2022-09-24T14:59:42.772Z,18.80
2022-09-24T15:02:20.874Z,18.70
2022-09-24T15:04:56.368Z,18.70
2022-09-24T15:07:27.651Z,18.60
2022-09-24T15:09:58.767Z,18.60
2022-09-24T15:12:31.692Z,18.70
2022-09-24T15:15:03.241Z,18.70
2022-09-24T15:17:33.556Z,18.70
2022-09-24T15:20:05.399Z,18.80
2022-09-24T15:22:33.448Z,18.80
2022-09-24T15:25:02.680Z,18.90
2022-09-24T15:27:32.724Z,18.80
2022-09-24T15:30:04.616Z,18.90
2022-09-24T15:32:35.856Z,18.80
2022-09-24T15:35:09.218Z,18.70
2022-09-24T15:37:40.499Z,18.60
2022-09-24T15:40:18.772Z,18.60
2022-09-24T15:42:46.977Z,18.60
2022-09-24T15:45:21.297Z,18.50
2022-09-24T15:47:49.607Z,18.50
2022-09-24T15:50:19.951Z,18.40
2022-09-24T15:52:54.014Z,18.30
2022-09-24T15:55:24.288Z,18.30
2022-09-24T15:57:53.113Z,18.20
2022-09-24T16:00:23.913Z,18.10
2022-09-24T16:02:55.113Z,18.10
2022-09-24T16:05:26.423Z,18.00
2022-09-24T16:07:54.442Z,18.00
2022-09-24T16:10:22.527Z,17.90
2022-09-24T16:12:50.557Z,17.90
2022-09-24T16:15:18.904Z,17.80
2022-09-24T16:17:50.322Z,17.70
2022-09-24T16:20:18.605Z,17.70
2022-09-24T16:22:47.929Z,17.60
2022-09-24T16:25:16.017Z,17.50
2022-09-24T16:27:44.016Z,17.40
2022-09-24T16:30:12.736Z,17.30
2022-09-24T16:32:40.747Z,17.20
2022-09-24T16:35:11.063Z,17.10
2022-09-24T16:37:39.064Z,17.00
2022-09-24T16:40:09.934Z,17.00
2022-09-24T16:42:37.972Z,16.90
2022-09-24T16:45:10.246Z,16.90
2022-09-24T16:47:38.349Z,16.80
2022-09-24T16:50:08.065Z,16.70
2022-09-24T16:52:36.045Z,16.70
2022-09-24T16:55:04.224Z,16.60
2022-09-24T16:57:36.385Z,16.50
2022-09-24T17:00:05.873Z,16.50
2022-09-24T17:02:33.865Z,16.40
2022-09-24T17:05:02.186Z,16.40
2022-09-24T17:07:31.715Z,16.30
2022-09-24T17:10:14.150Z,16.30
2022-09-24T17:12:46.242Z,16.30
2022-09-24T17:15:16.382Z,16.20
2022-09-24T17:17:49.903Z,16.10
2022-09-24T17:20:19.478Z,16.10
2022-09-24T17:22:48.399Z,16.10
2022-09-24T17:25:16.893Z,16.10
2022-09-24T17:27:46.255Z,16.00
2022-09-24T17:30:16.017Z,16.10
2022-09-24T17:32:44.264Z,16.10
2022-09-24T17:35:13.360Z,16.10
2022-09-24T17:37:41.353Z,16.10
2022-09-24T17:40:11.062Z,16.00
2022-09-24T17:42:40.415Z,16.00
2022-09-24T17:45:11.025Z,16.00
2022-09-24T17:47:52.914Z,15.90
2022-09-24T17:50:21.343Z,15.90
2022-09-24T17:52:49.339Z,15.90
2022-09-24T17:55:17.579Z,15.80
2022-09-24T17:57:45.603Z,15.70
2022-09-24T18:00:15.796Z,15.70
2022-09-24T18:02:43.843Z,15.70
2022-09-24T18:05:11.905Z,15.60
2022-09-24T18:07:39.923Z,15.60
2022-09-24T18:10:08.680Z,15.60
2022-09-24T18:12:36.661Z,15.60
2022-09-24T18:15:05.760Z,15.50
2022-09-24T18:17:35.089Z,15.50
2022-09-24T18:20:03.930Z,15.50
2022-09-24T18:22:32.469Z,15.40
2022-09-24T18:25:01.658Z,15.40
2022-09-24T18:27:32.126Z,15.30
2022-09-24T18:30:03.318Z,15.30
2022-09-24T18:32:31.817Z,15.20
2022-09-24T18:35:01.640Z,15.20
2022-09-24T18:37:29.772Z,15.10
2022-09-24T18:39:58.033Z,15.00
2022-09-24T18:42:27.812Z,15.00
2022-09-24T18:44:55.843Z,14.90
2022-09-24T18:47:23.823Z,14.90
2022-09-24T18:49:51.817Z,14.80
2022-09-24T18:52:21.189Z,14.70
2022-09-24T18:54:49.209Z,14.60
2022-09-24T18:57:17.242Z,14.60
2022-09-24T18:59:46.638Z,14.50
2022-09-24T19:02:15.586Z,14.40
2022-09-24T19:04:43.762Z,14.30
2022-09-24T19:07:11.743Z,14.20
2022-09-24T19:09:41.461Z,14.10
2022-09-24T19:12:09.915Z,14.10
2022-09-24T19:14:38.069Z,14.00
2022-09-24T19:17:07.134Z,13.60
2022-09-24T19:19:35.454Z,14.10
2022-09-24T19:22:03.420Z,14.00
2022-09-24T19:24:31.459Z,14.00
2022-09-24T19:27:00.771Z,14.00
2022-09-24T19:29:29.180Z,14.00
2022-09-24T19:31:58.141Z,13.90
2022-09-24T19:34:26.210Z,13.80
2022-09-24T19:36:54.992Z,13.80
2022-09-24T19:39:23.002Z,13.80
2022-09-24T19:41:52.846Z,13.70
2022-09-24T19:44:22.300Z,13.60
2022-09-24T19:46:50.307Z,13.60
2022-09-24T19:49:18.482Z,13.50
2022-09-24T19:51:46.487Z,13.40
2022-09-24T19:54:14.576Z,13.30
2022-09-24T19:56:42.696Z,13.20
2022-09-24T19:59:11.352Z,13.20
2022-09-24T20:01:41.241Z,13.10
2022-09-24T20:04:09.854Z,13.00
2022-09-24T20:06:39.103Z,13.00
2022-09-24T20:09:07.834Z,13.00
2022-09-24T20:11:36.969Z,13.00
2022-09-24T20:14:08.771Z,12.90
2022-09-24T20:16:37.976Z,12.90
2022-09-24T20:19:07.320Z,12.90
2022-09-24T20:21:36.853Z,12.90
2022-09-24T20:24:07.742Z,12.80
2022-09-24T20:26:53.489Z,12.70
2022-09-24T20:29:22.824Z,12.70
2022-09-24T20:31:55.337Z,12.70
2022-09-24T20:34:28.509Z,12.60
2022-09-24T20:36:59.199Z,12.60
2022-09-24T20:39:27.350Z,12.60
2022-09-24T20:41:55.918Z,12.80
2022-09-24T20:44:25.205Z,12.80
2022-09-24T20:46:53.258Z,12.80
2022-09-24T20:49:24.275Z,12.80
2022-09-24T20:51:57.073Z,12.80
2022-09-24T20:54:26.438Z,12.90
2022-09-24T20:56:54.551Z,12.80
2022-09-24T20:59:22.759Z,12.70
2022-09-24T21:01:50.948Z,12.70
2022-09-24T21:04:20.060Z,12.70
2022-09-24T21:06:50.349Z,12.60
2022-09-24T21:09:18.636Z,12.60
2022-09-24T21:11:50.220Z,12.70
2022-09-24T21:14:19.118Z,12.60
2022-09-24T21:16:47.350Z,12.70
2022-09-24T21:19:16.679Z,12.70
2022-09-24T21:21:44.752Z,12.70
2022-09-24T21:24:16.752Z,12.60
2022-09-24T21:26:45.659Z,12.50
2022-09-24T21:29:17.315Z,12.40
2022-09-24T21:31:47.964Z,12.40
2022-09-24T21:34:20.623Z,12.30
2022-09-24T21:36:48.800Z,12.30
2022-09-24T21:39:22.805Z,12.20
2022-09-24T21:41:55.307Z,12.10
2022-09-24T21:44:23.374Z,12.10
2022-09-24T21:46:52.612Z,12.00
2022-09-24T21:49:21.222Z,12.00
2022-09-24T21:51:49.350Z,12.00
2022-09-24T21:54:19.562Z,11.90
2022-09-24T21:56:48.663Z,11.90
2022-09-24T21:59:35.427Z,11.90
2022-09-24T22:02:04.470Z,11.80
2022-09-24T22:04:33.149Z,11.80
2022-09-24T22:07:01.696Z,11.80
2022-09-24T22:09:32.170Z,11.70
2022-09-24T22:12:02.002Z,11.70
2022-09-24T22:14:30.108Z,11.70
2022-09-24T22:16:58.150Z,11.80
2022-09-24T22:19:26.182Z,11.80
2022-09-24T22:21:54.190Z,11.80
2022-09-24T22:24:22.326Z,11.90
2022-09-24T22:26:51.846Z,11.90
2022-09-24T22:29:19.803Z,11.90
2022-09-24T22:31:47.821Z,11.90
2022-09-24T22:34:33.512Z,11.90
2022-09-24T22:37:04.432Z,11.90
2022-09-24T22:39:32.423Z,11.90
2022-09-24T22:42:01.822Z,11.90
2022-09-24T22:44:29.780Z,11.90
2022-09-24T22:46:57.844Z,11.90
2022-09-24T22:49:25.859Z,11.90
2022-09-24T22:51:53.877Z,11.90
2022-09-24T22:54:21.903Z,11.90
2022-09-24T22:56:49.955Z,11.80
2022-09-24T22:59:19.256Z,11.80
2022-09-24T23:01:47.326Z,11.80
2022-09-24T23:04:15.569Z,11.80
2022-09-24T23:06:44.486Z,11.80
2022-09-24T23:09:13.073Z,11.90
2022-09-24T23:11:41.262Z,11.90
2022-09-24T23:14:14.927Z,11.90
2022-09-24T23:16:44.946Z,12.00
2022-09-24T23:19:16.126Z,12.10
2022-09-24T23:21:44.388Z,12.10
2022-09-24T23:24:16.442Z,12.00
2022-09-24T23:26:45.167Z,11.90
2022-09-24T23:29:14.407Z,11.90
2022-09-24T23:31:44.198Z,11.90
2022-09-24T23:34:14.102Z,12.00
2022-09-24T23:36:46.131Z,11.90
2022-09-24T23:39:14.531Z,11.80
2022-09-24T23:41:42.594Z,11.80
2022-09-24T23:44:10.963Z,11.80
2022-09-24T23:46:39.375Z,11.70
2022-09-24T23:49:08.797Z,11.70
2022-09-24T23:51:36.993Z,11.70
2022-09-24T23:54:05.868Z,11.70
2022-09-24T23:56:34.052Z,11.60
2022-09-24T23:59:02.170Z,11.60
